Time;durP1;ratioP1;P1;durP2;ratioP2;P2;SDS_P1;SDS_P2;PMS_P1;PMS_P2;Temp;Humidity;BMP_temperature;BMP_pressure;BME280_temperature;BME280_humidity;BME280_pressure;Samples;Min_cycle;Max_cycle;Signal;HPM_P1;HPM_P2
2022/01/07 00:00:13;;;;;;;40.70;20.70;;;;;;;;;;5020810;28;21068;-84
2022/01/07 00:02:40;;;;;;;41.50;22.70;;;;;;;;;;5022207;28;20526;-84
2022/01/07 00:05:08;;;;;;;44.50;21.90;;;;;;;;;;5026629;28;20528;-84
2022/01/07 00:07:35;;;;;;;38.47;21.10;;;;;;;;;;5026970;28;21060;-83
2022/01/07 00:10:01;;;;;;;36.40;20.63;;;;;;;;;;5026248;28;20483;-85
2022/01/07 00:12:27;;;;;;;36.37;20.33;;;;;;;;;;5029360;28;20449;-84
2022/01/07 00:14:53;;;;;;;37.00;20.67;;;;;;;;;;5028521;28;20526;-84
2022/01/07 00:17:20;;;;;;;39.80;19.27;;;;;;;;;;5026444;28;20566;-83
2022/01/07 00:19:46;;;;;;;38.97;21.03;;;;;;;;;;5024904;28;20476;-84
2022/01/07 00:22:14;;;;;;;39.10;20.50;;;;;;;;;;5028641;28;20510;-84
2022/01/07 00:24:40;;;;;;;39.93;21.77;;;;;;;;;;5025943;28;20535;-84
2022/01/07 00:27:07;;;;;;;33.90;20.50;;;;;;;;;;5026987;28;20477;-84
2022/01/07 00:29:33;;;;;;;46.10;21.07;;;;;;;;;;5020958;28;20489;-84
2022/01/07 00:31:59;;;;;;;40.37;19.77;;;;;;;;;;5028623;28;20821;-84
2022/01/07 00:34:26;;;;;;;43.40;19.50;;;;;;;;;;5027703;28;20509;-84
2022/01/07 00:36:52;;;;;;;38.93;20.20;;;;;;;;;;5027415;28;20454;-84
2022/01/07 00:39:20;;;;;;;36.93;19.20;;;;;;;;;;5026304;28;20466;-84
2022/01/07 00:41:46;;;;;;;37.70;18.60;;;;;;;;;;5027423;28;20483;-83
2022/01/07 00:44:12;;;;;;;50.60;21.10;;;;;;;;;;5024209;28;20469;-84
2022/01/07 00:46:39;;;;;;;38.63;19.00;;;;;;;;;;5024928;28;20518;-84
2022/01/07 00:49:05;;;;;;;30.10;17.60;;;;;;;;;;5026444;28;20489;-84
2022/01/07 00:51:31;;;;;;;39.20;17.67;;;;;;;;;;5027907;28;20473;-85
2022/01/07 00:53:57;;;;;;;30.27;18.50;;;;;;;;;;5027275;28;20445;-84
2022/01/07 00:56:25;;;;;;;38.27;19.97;;;;;;;;;;5027894;28;20616;-84
2022/01/07 00:58:51;;;;;;;33.20;19.07;;;;;;;;;;5025482;28;20476;-84
2022/01/07 01:01:18;;;;;;;32.07;17.30;;;;;;;;;;5022559;28;20538;-84
2022/01/07 01:03:44;;;;;;;40.90;18.30;;;;;;;;;;5027682;28;20472;-84
2022/01/07 01:06:11;;;;;;;40.40;20.00;;;;;;;;;;5025716;28;20473;-83
2022/01/07 01:08:37;;;;;;;33.53;19.97;;;;;;;;;;5026441;28;20496;-83
2022/01/07 01:11:04;;;;;;;31.63;17.50;;;;;;;;;;5025012;28;20484;-84
2022/01/07 01:13:32;;;;;;;35.93;18.60;;;;;;;;;;5027926;28;20449;-84
2022/01/07 01:15:58;;;;;;;31.17;16.60;;;;;;;;;;5026134;28;20553;-84
2022/01/07 01:18:25;;;;;;;30.90;16.10;;;;;;;;;;5026700;28;20515;-84
2022/01/07 01:20:51;;;;;;;36.40;16.60;;;;;;;;;;5026784;28;20488;-84
2022/01/07 01:23:17;;;;;;;53.93;20.73;;;;;;;;;;5026386;28;20459;-83
2022/01/07 01:25:43;;;;;;;30.60;16.23;;;;;;;;;;5026068;28;20477;-83
2022/01/07 01:28:10;;;;;;;30.93;15.60;;;;;;;;;;5026064;28;20539;-84
2022/01/07 01:30:38;;;;;;;28.00;17.07;;;;;;;;;;5028310;28;20477;-84
2022/01/07 01:33:04;;;;;;;28.03;16.50;;;;;;;;;;5026480;28;20496;-84
2022/01/07 01:35:31;;;;;;;25.47;14.60;;;;;;;;;;5025516;28;20480;-84
2022/01/07 01:37:57;;;;;;;29.17;15.60;;;;;;;;;;5028128;28;20525;-84
2022/01/07 01:40:24;;;;;;;32.50;15.63;;;;;;;;;;5023627;28;20578;-84
2022/01/07 01:42:52;;;;;;;29.23;14.53;;;;;;;;;;5026845;28;20460;-84
2022/01/07 01:45:18;;;;;;;22.93;14.57;;;;;;;;;;5026998;28;20568;-84
2022/01/07 01:47:46;;;;;;;28.13;13.20;;;;;;;;;;5027270;28;20462;-84
2022/01/07 01:50:13;;;;;;;47.50;17.93;;;;;;;;;;5024229;28;21277;-84
2022/01/07 01:52:44;;;;;;;28.13;15.37;;;;;;;;;;5027005;28;20464;-84
2022/01/07 01:55:10;;;;;;;29.60;14.10;;;;;;;;;;5027462;28;20473;-84
2022/01/07 01:57:36;;;;;;;32.27;14.67;;;;;;;;;;5027729;28;20518;-84
2022/01/07 02:00:04;;;;;;;31.60;15.07;;;;;;;;;;5024263;28;20473;-85
2022/01/07 02:02:30;;;;;;;29.93;14.60;;;;;;;;;;5026550;28;20444;-85
2022/01/07 02:04:57;;;;;;;28.73;14.97;;;;;;;;;;5026468;28;20472;-83
2022/01/07 02:07:26;;;;;;;22.13;12.20;;;;;;;;;;5016856;28;20472;-84
2022/01/07 02:09:52;;;;;;;23.33;13.90;;;;;;;;;;5020906;28;20881;-84
2022/01/07 02:12:18;;;;;;;21.17;13.70;;;;;;;;;;5026281;28;20503;-84
2022/01/07 02:14:50;;;;;;;25.50;13.33;;;;;;;;;;5025329;28;20477;-83
2022/01/07 02:17:16;;;;;;;30.17;14.20;;;;;;;;;;5025022;28;20954;-84
2022/01/07 02:19:44;;;;;;;32.43;15.03;;;;;;;;;;5052850;22;20472;-80
2022/01/07 02:22:12;;;;;;;28.13;14.23;;;;;;;;;;5040100;28;20451;-81
2022/01/07 02:24:39;;;;;;;23.67;14.27;;;;;;;;;;5039622;28;20499;-81
2022/01/07 02:27:06;;;;;;;26.37;11.60;;;;;;;;;;5039280;28;20445;-81
2022/01/07 02:29:32;;;;;;;25.00;11.87;;;;;;;;;;5045361;28;20480;-81
2022/01/07 02:31:59;;;;;;;22.67;12.27;;;;;;;;;;5059806;28;20477;-81
2022/01/07 02:34:25;;;;;;;25.00;11.73;;;;;;;;;;5060491;28;20447;-81
2022/01/07 02:36:52;;;;;;;19.40;11.77;;;;;;;;;;5060169;28;20459;-81
2022/01/07 02:39:19;;;;;;;19.70;9.90;;;;;;;;;;5060992;28;20968;-80
2022/01/07 02:41:45;;;;;;;23.60;12.80;;;;;;;;;;5057550;28;20472;-81
2022/01/07 02:44:11;;;;;;;21.30;9.80;;;;;;;;;;5058307;28;20883;-81
2022/01/07 02:46:38;;;;;;;19.00;8.83;;;;;;;;;;5059358;28;20467;-81
2022/01/07 02:49:08;;;;;;;21.90;10.53;;;;;;;;;;5059345;28;20480;-81
2022/01/07 02:51:34;;;;;;;18.40;10.40;;;;;;;;;;5058440;28;20490;-81
2022/01/07 02:54:02;;;;;;;26.17;10.20;;;;;;;;;;5058862;28;20965;-81
2022/01/07 02:56:28;;;;;;;19.30;11.23;;;;;;;;;;5060528;28;20474;-81
2022/01/07 02:58:54;;;;;;;19.87;10.23;;;;;;;;;;5059502;28;20505;-81
2022/01/07 03:01:20;;;;;;;21.20;9.90;;;;;;;;;;5057613;28;20479;-81
2022/01/07 03:03:46;;;;;;;20.60;10.70;;;;;;;;;;5059758;28;20439;-81
2022/01/07 03:06:13;;;;;;;18.47;11.17;;;;;;;;;;5058071;28;20480;-81
2022/01/07 03:08:39;;;;;;;26.33;10.97;;;;;;;;;;5058672;28;20976;-81
2022/01/07 03:11:07;;;;;;;22.30;10.73;;;;;;;;;;5059999;28;20487;-81
2022/01/07 03:13:33;;;;;;;14.97;10.30;;;;;;;;;;5061546;28;21922;-81
2022/01/07 03:15:59;;;;;;;18.60;11.57;;;;;;;;;;5063678;28;20475;-81
2022/01/07 03:18:25;;;;;;;21.33;11.43;;;;;;;;;;5060487;28;20466;-80
2022/01/07 03:20:52;;;;;;;17.13;10.73;;;;;;;;;;5061036;28;20479;-81
2022/01/07 03:23:18;;;;;;;20.47;9.97;;;;;;;;;;5063245;28;20463;-81
2022/01/07 03:25:45;;;;;;;18.50;11.40;;;;;;;;;;5061220;28;20479;-80
2022/01/07 03:28:12;;;;;;;23.47;10.67;;;;;;;;;;5063068;28;20467;-81
2022/01/07 03:30:39;;;;;;;29.80;11.67;;;;;;;;;;5060867;28;20489;-81
2022/01/07 03:33:06;;;;;;;27.73;11.70;;;;;;;;;;5063177;28;20448;-81
2022/01/07 03:35:32;;;;;;;23.80;12.33;;;;;;;;;;5058879;28;20526;-81
2022/01/07 03:37:58;;;;;;;18.57;11.37;;;;;;;;;;5061688;28;20454;-80
2022/01/07 03:40:24;;;;;;;19.30;11.80;;;;;;;;;;5060877;28;20483;-81
2022/01/07 03:42:51;;;;;;;23.63;11.23;;;;;;;;;;5062963;28;20862;-81
2022/01/07 03:45:20;;;;;;;20.77;11.60;;;;;;;;;;5062362;28;20490;-81
2022/01/07 03:47:46;;;;;;;19.77;11.73;;;;;;;;;;5062911;28;20972;-80
2022/01/07 03:50:13;;;;;;;21.20;12.10;;;;;;;;;;5060156;28;20899;-81
2022/01/07 03:52:39;;;;;;;19.17;12.10;;;;;;;;;;5060256;28;20813;-81
2022/01/07 03:55:07;;;;;;;26.30;13.83;;;;;;;;;;5059428;28;20475;-81
2022/01/07 03:57:33;;;;;;;19.90;12.77;;;;;;;;;;5062119;28;20481;-81
2022/01/07 04:00:00;;;;;;;24.80;13.23;;;;;;;;;;5059885;28;20491;-81
2022/01/07 04:02:27;;;;;;;18.03;12.90;;;;;;;;;;5062297;28;20451;-81
2022/01/07 04:04:55;;;;;;;19.80;13.70;;;;;;;;;;5061997;28;21059;-81
2022/01/07 04:07:21;;;;;;;23.13;13.20;;;;;;;;;;5062133;28;20960;-81
2022/01/07 04:09:47;;;;;;;30.30;14.47;;;;;;;;;;5061609;28;20479;-81
2022/01/07 04:12:14;;;;;;;24.20;13.10;;;;;;;;;;5062487;28;20467;-81
2022/01/07 04:14:40;;;;;;;21.63;12.87;;;;;;;;;;5062278;28;20885;-80
2022/01/07 04:17:07;;;;;;;23.70;13.93;;;;;;;;;;5061657;28;20824;-81
2022/01/07 04:19:35;;;;;;;25.40;14.40;;;;;;;;;;5060442;28;20522;-81
2022/01/07 04:22:01;;;;;;;27.63;13.80;;;;;;;;;;5063231;28;20466;-81
2022/01/07 04:24:27;;;;;;;25.93;14.90;;;;;;;;;;5056552;28;20460;-81
2022/01/07 04:26:54;;;;;;;24.80;15.33;;;;;;;;;;5062776;28;20504;-81
2022/01/07 04:29:20;;;;;;;21.30;14.63;;;;;;;;;;5060675;28;20483;-81
2022/01/07 04:31:47;;;;;;;28.60;15.43;;;;;;;;;;5062998;28;20502;-81
2022/01/07 04:34:13;;;;;;;27.40;15.87;;;;;;;;;;5060381;28;20957;-81
2022/01/07 04:36:41;;;;;;;23.10;15.17;;;;;;;;;;5061083;28;20670;-81
2022/01/07 04:39:07;;;;;;;26.37;17.43;;;;;;;;;;5060902;28;22288;-81
2022/01/07 04:41:33;;;;;;;22.53;15.73;;;;;;;;;;5059751;28;20479;-81
2022/01/07 04:43:59;;;;;;;20.90;14.60;;;;;;;;;;5061304;28;20463;-81
2022/01/07 04:46:26;;;;;;;25.73;17.17;;;;;;;;;;5062907;28;21009;-81
2022/01/07 04:48:52;;;;;;;24.40;17.10;;;;;;;;;;5061787;28;20443;-81
2022/01/07 04:51:18;;;;;;;27.27;16.87;;;;;;;;;;5060313;28;20487;-81
2022/01/07 04:53:46;;;;;;;26.00;17.13;;;;;;;;;;5060103;28;20509;-81
2022/01/07 04:56:12;;;;;;;33.13;16.33;;;;;;;;;;5058590;28;21027;-80
2022/01/07 04:58:38;;;;;;;28.77;16.80;;;;;;;;;;5058546;28;20462;-81
2022/01/07 05:01:05;;;;;;;22.10;17.50;;;;;;;;;;5060381;28;20487;-81
2022/01/07 05:03:31;;;;;;;27.87;16.03;;;;;;;;;;5062308;28;20471;-80
2022/01/07 05:06:10;;;;;;;30.27;18.87;;;;;;;;;;5062290;28;20476;-81
2022/01/07 05:08:36;;;;;;;27.97;17.00;;;;;;;;;;5062193;28;20487;-80
2022/01/07 05:11:04;;;;;;;25.40;17.87;;;;;;;;;;5060786;28;20495;-81
2022/01/07 05:13:30;;;;;;;29.30;18.80;;;;;;;;;;5057508;28;20521;-80
2022/01/07 05:15:56;;;;;;;24.50;17.50;;;;;;;;;;5062051;28;20478;-81
2022/01/07 05:18:23;;;;;;;26.27;18.23;;;;;;;;;;5060289;28;20452;-81
2022/01/07 05:20:49;;;;;;;22.50;17.60;;;;;;;;;;5059476;28;20471;-80
2022/01/07 05:23:16;;;;;;;28.13;19.70;;;;;;;;;;5061271;28;20558;-80
2022/01/07 05:25:42;;;;;;;29.73;18.60;;;;;;;;;;5060636;28;20471;-78
2022/01/07 05:28:09;;;;;;;26.47;18.63;;;;;;;;;;5062271;28;21027;-80
2022/01/07 05:30:36;;;;;;;24.90;17.80;;;;;;;;;;5055041;28;20501;-80
2022/01/07 05:33:02;;;;;;;33.47;21.00;;;;;;;;;;5062598;28;20953;-80
2022/01/07 05:35:29;;;;;;;30.77;18.80;;;;;;;;;;5061734;28;20899;-80
2022/01/07 05:37:55;;;;;;;38.20;21.00;;;;;;;;;;5062061;28;20458;-80
2022/01/07 05:40:21;;;;;;;30.53;18.60;;;;;;;;;;5060552;28;20476;-81
2022/01/07 05:42:48;;;;;;;33.77;19.30;;;;;;;;;;5060753;28;20501;-80
2022/01/07 05:45:15;;;;;;;28.43;19.57;;;;;;;;;;5058470;28;20479;-80
2022/01/07 05:47:42;;;;;;;30.27;19.83;;;;;;;;;;5059941;28;20875;-81
2022/01/07 05:50:08;;;;;;;32.00;20.00;;;;;;;;;;5061308;28;20475;-80
2022/01/07 05:52:35;;;;;;;28.07;19.10;;;;;;;;;;5060121;28;20452;-80
2022/01/07 05:55:01;;;;;;;29.10;19.70;;;;;;;;;;5061898;28;20472;-80
2022/01/07 05:57:28;;;;;;;33.67;19.10;;;;;;;;;;5062176;28;20452;-81
2022/01/07 05:59:54;;;;;;;34.37;20.27;;;;;;;;;;5058725;28;20570;-80
2022/01/07 06:02:22;;;;;;;30.57;20.10;;;;;;;;;;5061574;28;20862;-81
2022/01/07 06:04:48;;;;;;;32.90;20.73;;;;;;;;;;5059899;28;20472;-80
2022/01/07 06:07:15;;;;;;;28.03;19.33;;;;;;;;;;5063308;28;20939;-80
2022/01/07 06:09:41;;;;;;;32.30;19.40;;;;;;;;;;5061448;28;20470;-81
2022/01/07 06:12:08;;;;;;;25.90;17.97;;;;;;;;;;5058639;28;20467;-80
2022/01/07 06:14:34;;;;;;;23.47;17.73;;;;;;;;;;5061452;28;20459;-80
2022/01/07 06:17:00;;;;;;;26.93;20.43;;;;;;;;;;5060437;28;20993;-80
2022/01/07 06:19:28;;;;;;;23.27;19.47;;;;;;;;;;5061621;28;20917;-80
2022/01/07 06:21:54;;;;;;;29.93;20.33;;;;;;;;;;5060411;28;20501;-81
2022/01/07 06:24:21;;;;;;;28.57;19.57;;;;;;;;;;5058242;28;20870;-80
2022/01/07 06:26:47;;;;;;;27.73;20.93;;;;;;;;;;5058601;28;20451;-80
2022/01/07 06:29:13;;;;;;;27.50;20.03;;;;;;;;;;5056443;28;20475;-80
2022/01/07 06:31:39;;;;;;;27.90;20.17;;;;;;;;;;5062291;28;20486;-80
2022/01/07 06:34:06;;;;;;;29.90;19.90;;;;;;;;;;5061406;28;20452;-80
2022/01/07 06:36:33;;;;;;;26.53;19.80;;;;;;;;;;5059200;28;20517;-80
2022/01/07 06:39:00;;;;;;;25.90;20.27;;;;;;;;;;5060157;28;20444;-80
2022/01/07 06:41:26;;;;;;;33.57;21.30;;;;;;;;;;5057362;28;20482;-80
2022/01/07 06:43:52;;;;;;;31.00;20.23;;;;;;;;;;5056895;28;20451;-80
2022/01/07 06:46:19;;;;;;;30.37;21.40;;;;;;;;;;5057348;28;20487;-80
2022/01/07 06:48:45;;;;;;;28.73;21.20;;;;;;;;;;5056369;28;20467;-80
2022/01/07 06:51:11;;;;;;;30.53;21.70;;;;;;;;;;5053466;28;20472;-80
2022/01/07 06:53:39;;;;;;;32.00;21.07;;;;;;;;;;5057683;28;20969;-80
2022/01/07 06:56:05;;;;;;;29.50;21.77;;;;;;;;;;5057469;28;20518;-81
2022/01/07 06:58:31;;;;;;;30.63;19.90;;;;;;;;;;5059362;28;20448;-80
2022/01/07 07:00:57;;;;;;;39.03;22.10;;;;;;;;;;5055344;28;21934;-80
2022/01/07 07:03:24;;;;;;;33.80;23.33;;;;;;;;;;5061078;28;20869;-80
2022/01/07 07:05:50;;;;;;;25.70;20.73;;;;;;;;;;5057731;28;20972;-80
2022/01/07 07:08:16;;;;;;;27.20;21.47;;;;;;;;;;5059748;28;20446;-80
2022/01/07 07:10:44;;;;;;;30.30;20.80;;;;;;;;;;5058759;28;20508;-79
2022/01/07 07:13:10;;;;;;;28.53;21.10;;;;;;;;;;5059995;28;20455;-80
2022/01/07 07:15:36;;;;;;;30.40;21.03;;;;;;;;;;5058904;28;20506;-80
2022/01/07 07:18:03;;;;;;;36.63;20.00;;;;;;;;;;5060194;28;20460;-78
2022/01/07 07:20:29;;;;;;;27.73;20.13;;;;;;;;;;5055540;28;20475;-80
2022/01/07 07:22:55;;;;;;;27.20;19.20;;;;;;;;;;5060631;28;20448;-80
2022/01/07 07:25:23;;;;;;;29.83;20.37;;;;;;;;;;5059220;28;20524;-80
2022/01/07 07:27:51;;;;;;;30.63;21.40;;;;;;;;;;5060378;28;20835;-81
2022/01/07 07:30:17;;;;;;;34.30;23.60;;;;;;;;;;5055171;28;20476;-80
2022/01/07 07:32:44;;;;;;;27.83;21.40;;;;;;;;;;5059075;28;20510;-81
2022/01/07 07:37:56;;;;;;;28.10;21.60;;;;;;;;;;5060104;28;20627;-80
2022/01/07 07:40:22;;;;;;;26.40;21.20;;;;;;;;;;5058203;28;20525;-80
2022/01/07 07:42:49;;;;;;;27.30;20.40;;;;;;;;;;5056309;28;20466;-80
2022/01/07 07:45:16;;;;;;;29.93;21.10;;;;;;;;;;5056279;28;20463;-80
2022/01/07 07:47:43;;;;;;;30.03;20.77;;;;;;;;;;5060120;28;20443;-79
2022/01/07 07:50:10;;;;;;;26.17;20.10;;;;;;;;;;5059627;28;21017;-80
2022/01/07 07:52:36;;;;;;;35.40;22.90;;;;;;;;;;5054654;28;20539;-80
2022/01/07 07:55:02;;;;;;;27.07;21.60;;;;;;;;;;5058504;28;20545;-80
2022/01/07 07:57:29;;;;;;;31.97;21.00;;;;;;;;;;5051519;28;20973;-80
2022/01/07 07:59:55;;;;;;;29.80;20.50;;;;;;;;;;5060088;28;20988;-81
2022/01/07 08:02:23;;;;;;;29.03;22.00;;;;;;;;;;5060424;28;20455;-80
2022/01/07 08:04:49;;;;;;;33.27;23.63;;;;;;;;;;5062073;28;20458;-81
2022/01/07 08:07:17;;;;;;;27.10;20.77;;;;;;;;;;5064221;28;20479;-82
2022/01/07 08:09:44;;;;;;;27.97;21.73;;;;;;;;;;5057491;28;20495;-80
2022/01/07 08:12:19;;;;;;;31.30;22.40;;;;;;;;;;5063596;28;20502;-80
2022/01/07 08:17:31;;;;;;;28.03;20.90;;;;;;;;;;5065447;28;20814;-82
2022/01/07 08:22:32;;;;;;;28.23;21.40;;;;;;;;;;5075683;22;20509;-82
2022/01/07 08:24:59;;;;;;;28.53;21.13;;;;;;;;;;5046585;28;20475;-81
2022/01/07 08:27:25;;;;;;;27.27;21.70;;;;;;;;;;5040856;28;20981;-81
2022/01/07 08:29:51;;;;;;;25.13;18.70;;;;;;;;;;5041376;28;21205;-81
2022/01/07 08:35:04;;;;;;;29.30;22.97;;;;;;;;;;5065969;28;20478;-82
2022/01/07 08:37:30;;;;;;;32.90;22.60;;;;;;;;;;5063942;28;20582;-82
2022/01/07 08:39:57;;;;;;;26.47;22.00;;;;;;;;;;5062898;28;20495;-81
2022/01/07 08:42:23;;;;;;;31.60;22.17;;;;;;;;;;5063100;28;20929;-82
2022/01/07 08:44:51;;;;;;;29.20;22.73;;;;;;;;;;5063227;28;20828;-82
2022/01/07 08:47:18;;;;;;;30.50;23.77;;;;;;;;;;5062357;28;20451;-82
2022/01/07 08:49:44;;;;;;;27.57;22.70;;;;;;;;;;5063264;28;20839;-82
2022/01/07 08:52:11;;;;;;;29.87;22.73;;;;;;;;;;5061467;28;20491;-82
2022/01/07 08:54:38;;;;;;;30.47;24.13;;;;;;;;;;5059680;28;20479;-82
2022/01/07 08:57:04;;;;;;;32.10;23.20;;;;;;;;;;5062712;28;20452;-82
2022/01/07 08:59:30;;;;;;;30.13;22.77;;;;;;;;;;5059638;28;20453;-82
2022/01/07 09:01:57;;;;;;;30.20;23.70;;;;;;;;;;5057250;28;21163;-82
2022/01/07 09:04:23;;;;;;;31.77;24.10;;;;;;;;;;5057849;28;20470;-81
2022/01/07 09:06:50;;;;;;;30.37;23.90;;;;;;;;;;5060361;28;20456;-81
2022/01/07 09:09:17;;;;;;;34.20;23.50;;;;;;;;;;5058592;28;20492;-83
2022/01/07 09:11:44;;;;;;;28.17;22.77;;;;;;;;;;5059326;28;20561;-80
2022/01/07 09:14:10;;;;;;;34.33;25.63;;;;;;;;;;5062286;28;20848;-82
2022/01/07 09:16:36;;;;;;;32.40;24.07;;;;;;;;;;5061108;28;20502;-82
2022/01/07 09:19:03;;;;;;;31.07;24.30;;;;;;;;;;5060192;28;20465;-82
2022/01/07 09:21:29;;;;;;;38.97;26.63;;;;;;;;;;5055618;28;21071;-82
2022/01/07 09:23:56;;;;;;;29.70;24.30;;;;;;;;;;5059085;28;20477;-82
2022/01/07 09:26:23;;;;;;;34.03;23.80;;;;;;;;;;5059438;28;21080;-82
2022/01/07 09:28:50;;;;;;;35.40;25.80;;;;;;;;;;5059583;28;20572;-82
2022/01/07 09:31:17;;;;;;;35.50;26.00;;;;;;;;;;5061320;28;20475;-81
2022/01/07 09:33:43;;;;;;;32.53;23.60;;;;;;;;;;5046932;28;20491;-80
2022/01/07 09:36:09;;;;;;;36.20;25.57;;;;;;;;;;5062990;28;20480;-82
2022/01/07 09:38:36;;;;;;;37.13;26.40;;;;;;;;;;5059356;28;20483;-82
2022/01/07 09:41:02;;;;;;;35.13;24.73;;;;;;;;;;5059858;28;20597;-82
2022/01/07 09:43:30;;;;;;;34.50;26.00;;;;;;;;;;5058767;28;20971;-79
2022/01/07 09:45:56;;;;;;;33.80;25.93;;;;;;;;;;5056075;28;20483;-79
2022/01/07 09:48:22;;;;;;;32.07;24.13;;;;;;;;;;5058064;28;20458;-79
2022/01/07 09:50:49;;;;;;;37.30;26.07;;;;;;;;;;5059557;28;20476;-79
2022/01/07 09:53:15;;;;;;;33.33;23.90;;;;;;;;;;5058303;28;20462;-80
2022/01/07 09:55:42;;;;;;;34.97;25.17;;;;;;;;;;5056025;28;20472;-79
2022/01/07 09:58:08;;;;;;;33.50;25.43;;;;;;;;;;5058131;28;20471;-79
2022/01/07 10:00:38;;;;;;;38.10;26.27;;;;;;;;;;5059271;28;20502;-80
2022/01/07 10:03:06;;;;;;;38.13;24.67;;;;;;;;;;5057278;28;20957;-79
2022/01/07 10:05:32;;;;;;;31.90;24.80;;;;;;;;;;5058632;28;20475;-79
2022/01/07 10:08:13;;;;;;;39.70;24.90;;;;;;;;;;5055526;28;20546;-79
2022/01/07 10:10:40;;;;;;;31.97;24.97;;;;;;;;;;5058020;28;21056;-79
2022/01/07 10:13:06;;;;;;;38.00;25.93;;;;;;;;;;5058283;28;20517;-80
2022/01/07 10:15:33;;;;;;;39.53;26.63;;;;;;;;;;5059267;28;20503;-79
2022/01/07 10:18:02;;;;;;;42.27;26.87;;;;;;;;;;5060270;28;20506;-77
2022/01/07 10:20:29;;;;;;;39.73;25.67;;;;;;;;;;5059234;28;20486;-79
2022/01/07 10:22:57;;;;;;;38.30;25.80;;;;;;;;;;5058135;28;20521;-79
2022/01/07 10:25:25;;;;;;;45.27;28.17;;;;;;;;;;5059187;28;20479;-80
2022/01/07 10:27:51;;;;;;;37.17;25.73;;;;;;;;;;5058161;28;20517;-79
2022/01/07 10:30:25;;;;;;;44.57;26.83;;;;;;;;;;5052976;28;20548;-79
2022/01/07 10:32:52;;;;;;;38.73;24.97;;;;;;;;;;5057808;28;20565;-79
2022/01/07 10:35:20;;;;;;;33.00;24.77;;;;;;;;;;5058674;28;20503;-79
2022/01/07 10:37:48;;;;;;;32.40;23.63;;;;;;;;;;5059188;28;20455;-79
2022/01/07 10:40:20;;;;;;;35.13;23.53;;;;;;;;;;5059692;28;20482;-79
2022/01/07 10:42:46;;;;;;;33.33;23.73;;;;;;;;;;5057604;28;20452;-79
2022/01/07 10:45:13;;;;;;;36.90;24.50;;;;;;;;;;5060190;28;21000;-79
2022/01/07 10:47:39;;;;;;;39.03;27.50;;;;;;;;;;5059858;28;20865;-79
2022/01/07 10:50:14;;;;;;;32.40;22.97;;;;;;;;;;5060420;28;20517;-79
2022/01/07 10:52:42;;;;;;;43.00;24.73;;;;;;;;;;5059035;28;20540;-79
2022/01/07 10:55:10;;;;;;;32.07;24.67;;;;;;;;;;5058332;28;20528;-79
2022/01/07 10:57:37;;;;;;;38.10;25.10;;;;;;;;;;5060715;28;20493;-79
2022/01/07 11:00:05;;;;;;;35.33;24.43;;;;;;;;;;5059969;28;20893;-79
2022/01/07 11:02:33;;;;;;;35.13;23.67;;;;;;;;;;5060244;28;20503;-79
2022/01/07 11:04:59;;;;;;;44.07;26.60;;;;;;;;;;5060677;28;20555;-79
2022/01/07 11:07:25;;;;;;;33.37;23.97;;;;;;;;;;5062216;28;20541;-79
2022/01/07 11:09:55;;;;;;;33.70;24.67;;;;;;;;;;5052437;28;20491;-78
2022/01/07 11:12:21;;;;;;;36.37;24.10;;;;;;;;;;5059387;28;20482;-79
2022/01/07 11:14:47;;;;;;;36.17;24.03;;;;;;;;;;5054906;28;20469;-79
2022/01/07 11:17:21;;;;;;;32.87;23.00;;;;;;;;;;5060134;28;20452;-81
2022/01/07 11:19:49;;;;;;;36.40;25.57;;;;;;;;;;5060913;28;20464;-81
2022/01/07 11:22:16;;;;;;;34.67;24.80;;;;;;;;;;5056679;28;20498;-81
2022/01/07 11:24:43;;;;;;;38.10;24.90;;;;;;;;;;5058979;28;20467;-79
2022/01/07 11:27:11;;;;;;;38.60;24.87;;;;;;;;;;5059234;28;20464;-82
2022/01/07 11:29:39;;;;;;;41.27;25.70;;;;;;;;;;5054983;28;20494;-80
2022/01/07 11:32:28;;;;;;;39.30;25.87;;;;;;;;;;5060626;28;20514;-80
2022/01/07 11:34:55;;;;;;;39.83;25.20;;;;;;;;;;5060813;28;20855;-81
2022/01/07 11:37:33;;;;;;;47.30;27.10;;;;;;;;;;5065587;28;20942;-80
2022/01/07 11:40:00;;;;;;;46.10;28.10;;;;;;;;;;5061771;28;20491;-82
2022/01/07 11:42:39;;;;;;;50.87;27.30;;;;;;;;;;5066452;28;20462;-81
2022/01/07 11:45:20;;;;;;;43.80;26.47;;;;;;;;;;5064509;28;20509;-81
2022/01/07 11:47:48;;;;;;;44.80;28.00;;;;;;;;;;5066014;28;20442;-81
2022/01/07 11:50:14;;;;;;;40.70;26.73;;;;;;;;;;5057270;28;20491;-81
2022/01/07 11:52:41;;;;;;;45.40;27.60;;;;;;;;;;5063798;28;20483;-81
2022/01/07 11:55:26;;;;;;;36.20;21.07;;;;;;;;;;5065150;28;20471;-81
2022/01/07 11:57:54;;;;;;;35.90;24.00;;;;;;;;;;5062229;28;20482;-82
2022/01/07 12:00:39;;;;;;;35.37;23.80;;;;;;;;;;5066649;28;20479;-82
2022/01/07 12:03:05;;;;;;;33.63;23.40;;;;;;;;;;5065246;28;20820;-82
2022/01/07 12:05:32;;;;;;;34.83;23.27;;;;;;;;;;5064400;28;20502;-81
2022/01/07 12:07:58;;;;;;;32.30;21.60;;;;;;;;;;5060753;28;20451;-80
2022/01/07 12:10:24;;;;;;;39.53;23.70;;;;;;;;;;5062953;28;20495;-81
2022/01/07 12:12:58;;;;;;;31.80;22.30;;;;;;;;;;5061538;28;20499;-82
2022/01/07 12:15:26;;;;;;;32.67;22.77;;;;;;;;;;5062274;28;20486;-82
2022/01/07 12:17:52;;;;;;;29.57;20.17;;;;;;;;;;5063164;28;20448;-82
2022/01/07 12:20:36;;;;;;;30.83;20.13;;;;;;;;;;5061589;28;20514;-81
2022/01/07 12:23:03;;;;;;;31.43;21.20;;;;;;;;;;5065456;28;20460;-82
2022/01/07 12:25:29;;;;;;;34.33;21.63;;;;;;;;;;5062875;28;20528;-81
2022/01/07 12:28:00;;;;;;;28.27;20.30;;;;;;;;;;5061813;28;20444;-81
2022/01/07 12:30:28;;;;;;;27.17;19.87;;;;;;;;;;5060208;28;20484;-80
2022/01/07 12:32:58;;;;;;;37.83;21.20;;;;;;;;;;5064293;28;20479;-82
2022/01/07 12:35:29;;;;;;;27.97;20.90;;;;;;;;;;5063139;28;20487;-82
2022/01/07 12:37:55;;;;;;;31.33;19.60;;;;;;;;;;5065844;28;20472;-82
2022/01/07 12:40:21;;;;;;;27.60;19.23;;;;;;;;;;5059556;28;20516;-81
2022/01/07 12:42:47;;;;;;;30.20;20.80;;;;;;;;;;5063257;28;20442;-81
2022/01/07 12:45:14;;;;;;;27.73;17.43;;;;;;;;;;5062675;28;20478;-80
2022/01/07 12:47:42;;;;;;;35.07;19.90;;;;;;;;;;5063277;28;20454;-81
2022/01/07 12:50:09;;;;;;;22.73;17.00;;;;;;;;;;5065202;28;20529;-80
2022/01/07 12:52:37;;;;;;;29.90;18.37;;;;;;;;;;5065642;28;20483;-81
2022/01/07 12:55:05;;;;;;;24.10;14.07;;;;;;;;;;5063609;28;20871;-81
2022/01/07 12:57:32;;;;;;;17.40;11.37;;;;;;;;;;5073234;28;20873;-82
2022/01/07 13:00:04;;;;;;;17.03;11.50;;;;;;;;;;5067107;28;20474;-81
2022/01/07 13:02:31;;;;;;;14.93;11.13;;;;;;;;;;5066274;28;20443;-82
2022/01/07 13:05:10;;;;;;;20.13;13.27;;;;;;;;;;5067325;28;20483;-80
2022/01/07 13:07:39;;;;;;;16.17;12.53;;;;;;;;;;5063983;28;20440;-81
2022/01/07 13:10:06;;;;;;;16.03;12.47;;;;;;;;;;5060160;28;20510;-80
2022/01/07 13:12:32;;;;;;;24.33;13.20;;;;;;;;;;5063547;28;20558;-82
2022/01/07 13:14:58;;;;;;;22.30;15.17;;;;;;;;;;5065591;28;20475;-82
2022/01/07 13:17:28;;;;;;;19.83;13.40;;;;;;;;;;5062812;28;20510;-82
2022/01/07 13:19:54;;;;;;;18.23;13.90;;;;;;;;;;5063994;28;20467;-81
2022/01/07 13:22:24;;;;;;;15.73;12.13;;;;;;;;;;5061076;28;20487;-82
2022/01/07 13:24:50;;;;;;;19.70;12.30;;;;;;;;;;5066062;28;20463;-81
2022/01/07 13:27:17;;;;;;;18.70;13.23;;;;;;;;;;5063967;28;20955;-81
2022/01/07 13:29:46;;;;;;;20.73;14.70;;;;;;;;;;5065505;28;20471;-81
2022/01/07 13:32:13;;;;;;;25.93;15.57;;;;;;;;;;5062848;28;20488;-82
2022/01/07 13:34:40;;;;;;;17.23;14.57;;;;;;;;;;5063478;28;20479;-82
2022/01/07 13:37:07;;;;;;;20.47;15.20;;;;;;;;;;5064624;28;20472;-81
2022/01/07 13:39:40;;;;;;;22.77;14.60;;;;;;;;;;5064447;28;20475;-81
2022/01/07 13:42:07;;;;;;;27.00;16.63;;;;;;;;;;5062430;28;20459;-81
2022/01/07 13:44:49;;;;;;;26.40;16.37;;;;;;;;;;5061142;28;20471;-82
2022/01/07 13:47:19;;;;;;;27.43;17.87;;;;;;;;;;5059448;28;20995;-82
2022/01/07 13:49:45;;;;;;;22.90;15.77;;;;;;;;;;5061732;28;21183;-81
2022/01/07 13:52:11;;;;;;;21.13;15.20;;;;;;;;;;5061309;28;20967;-81
2022/01/07 13:54:40;;;;;;;25.70;16.30;;;;;;;;;;5061898;28;20554;-81
2022/01/07 13:57:08;;;;;;;24.47;16.80;;;;;;;;;;5059421;28;20452;-81
2022/01/07 13:59:40;;;;;;;29.50;15.03;;;;;;;;;;5060766;28;20478;-81
2022/01/07 14:02:08;;;;;;;24.43;14.50;;;;;;;;;;5061981;28;20471;-81
2022/01/07 14:04:41;;;;;;;25.00;16.60;;;;;;;;;;5060248;28;20476;-81
2022/01/07 14:07:20;;;;;;;37.27;16.93;;;;;;;;;;5059790;28;20470;-81
2022/01/07 14:10:01;;;;;;;17.10;13.50;;;;;;;;;;5060850;28;20478;-80
2022/01/07 14:12:27;;;;;;;22.50;15.23;;;;;;;;;;5061636;28;20483;-81
2022/01/07 14:15:02;;;;;;;20.60;14.50;;;;;;;;;;5061289;28;20460;-81
2022/01/07 14:17:28;;;;;;;26.93;13.73;;;;;;;;;;5058021;28;20458;-81
2022/01/07 14:19:55;;;;;;;16.77;13.93;;;;;;;;;;5055800;28;20488;-81
2022/01/07 14:22:22;;;;;;;23.73;16.80;;;;;;;;;;5054141;28;20509;-81
2022/01/07 14:24:48;;;;;;;20.50;13.90;;;;;;;;;;5059883;28;20545;-81
2022/01/07 14:27:25;;;;;;;20.30;16.20;;;;;;;;;;5056849;28;20470;-81